createdAt,value
2022-09-09T00:05:10.373Z,81.00
2022-09-09T00:20:11.108Z,146.40
2022-09-09T00:35:11.801Z,82.30
2022-09-09T00:50:13.665Z,88.00
2022-09-09T01:05:14.860Z,84.90
2022-09-09T01:20:16.047Z,96.60
2022-09-09T01:35:16.735Z,72.50
2022-09-09T01:50:17.431Z,43.10
2022-09-09T02:05:18.679Z,40.80
2022-09-09T02:20:19.940Z,48.90
2022-09-09T02:35:21.089Z,40.20
2022-09-09T02:50:22.244Z,34.90
2022-09-09T03:05:23.359Z,37.40
2022-09-09T03:20:24.521Z,34.50
2022-09-09T03:35:25.874Z,45.10
2022-09-09T03:50:26.543Z,43.40
2022-09-09T04:05:27.212Z,48.90
2022-09-09T04:20:28.386Z,36.60
2022-09-09T04:35:29.583Z,35.60
2022-09-09T04:50:30.749Z,45.90
2022-09-09T05:05:31.892Z,39.10
2022-09-09T05:20:32.995Z,33.10
2022-09-09T05:35:34.776Z,36.00
2022-09-09T05:50:35.741Z,25.40
2022-09-09T06:05:36.893Z,30.40
2022-09-09T06:20:37.999Z,15.30
2022-09-09T06:35:39.150Z,9.50
2022-09-09T06:50:40.130Z,6.40
2022-09-09T07:05:41.267Z,4.90
2022-09-09T07:20:42.374Z,5.30
2022-09-09T07:35:44.699Z,4.20
2022-09-09T07:50:46.067Z,3.00
2022-09-09T08:05:46.483Z,3.50
2022-09-09T08:20:48.659Z,3.00
2022-09-09T08:35:49.621Z,4.50
2022-09-09T08:50:50.299Z,4.80
2022-09-09T09:05:51.412Z,4.60
2022-09-09T09:20:53.635Z,4.90
2022-09-09T09:35:53.758Z,2.80
2022-09-09T09:50:53.790Z,4.40
2022-09-09T10:05:54.005Z,4.20
2022-09-09T10:20:55.013Z,3.30
2022-09-09T10:35:55.261Z,3.90
2022-09-09T10:51:00.929Z,4.30
2022-09-09T11:06:01.631Z,3.00
2022-09-09T11:21:02.597Z,3.70
2022-09-09T11:36:07.212Z,4.20
2022-09-09T11:51:11.036Z,2.60
2022-09-09T12:06:12.666Z,1.50
2022-09-09T12:21:12.784Z,5.10
2022-09-09T12:36:12.863Z,3.70
2022-09-09T12:51:12.980Z,5.00
2022-09-09T13:06:13.028Z,3.80
2022-09-09T13:21:13.101Z,7.70
2022-09-09T13:36:13.198Z,3.00
2022-09-09T13:51:13.539Z,6.40
2022-09-09T14:06:14.393Z,2.30
2022-09-09T14:21:14.506Z,2.50
2022-09-09T14:36:16.984Z,2.90
2022-09-09T14:51:18.579Z,4.00
2022-09-09T15:06:18.623Z,3.10
2022-09-09T15:21:19.230Z,3.80
2022-09-09T15:36:19.542Z,2.30
2022-09-09T15:51:41.326Z,2.30
2022-09-09T16:06:26.748Z,1.90
2022-09-09T16:21:28.314Z,6.90
2022-09-09T16:36:29.381Z,3.70
2022-09-09T16:51:29.469Z,4.50
2022-09-09T17:06:29.095Z,6.80
2022-09-09T17:21:30.159Z,7.60
2022-09-09T17:36:30.286Z,6.20
2022-09-09T17:51:30.882Z,6.80
2022-09-09T18:06:31.020Z,9.90
2022-09-09T18:21:31.571Z,4.80
2022-09-09T18:36:32.211Z,12.30
2022-09-09T18:51:33.362Z,6.70
2022-09-09T19:06:34.383Z,133.90
2022-09-09T19:21:34.462Z,115.00
2022-09-09T19:36:34.593Z,5.10
2022-09-09T19:51:34.747Z,3.60
2022-09-09T20:06:34.853Z,1.70
2022-09-09T20:21:35.198Z,3.60
2022-09-09T20:36:36.088Z,3.20
2022-09-09T20:51:36.255Z,3.50
2022-09-09T21:06:37.196Z,2.40
2022-09-09T21:21:37.453Z,4.80
2022-09-09T21:36:37.565Z,3.80
2022-09-09T21:51:37.690Z,2.50
2022-09-09T22:06:37.818Z,4.90
2022-09-09T22:21:37.922Z,1.50
2022-09-09T22:36:38.503Z,4.20
2022-09-09T22:51:39.091Z,5.10
2022-09-09T23:06:40.540Z,2.60
2022-09-09T23:21:40.805Z,4.50
2022-09-09T23:36:42.175Z,4.60
2022-09-09T23:51:43.073Z,5.10
